Time;durP1;ratioP1;P1;durP2;ratioP2;P2;SDS_P1;SDS_P2;PMS_P1;PMS_P2;Temp;Humidity;BMP_temperature;BMP_pressure;BME280_temperature;BME280_humidity;BME280_pressure;Samples;Min_cycle;Max_cycle;Signal;HPM_P1;HPM_P2
2022/01/02 00:01:08;;;;;;;;;;;9.20;99.90;;;;;;5033071;28;20053;-73
2022/01/02 00:04:35;;;;;;;22.83;12.20;;;9.20;99.90;;;;;;5032239;28;19920;-73
2022/01/02 00:08:10;;;;;;;23.40;12.80;;;9.20;99.90;;;;;;5032550;28;20068;-73
2022/01/02 00:11:37;;;;;;;21.02;12.02;;;9.20;99.90;;;;;;5032058;28;20499;-73
2022/01/02 00:15:04;;;;;;;18.23;10.98;;;9.30;99.90;;;;;;5032300;28;20048;-74
2022/01/02 00:18:28;;;;;;;20.27;11.05;;;9.30;99.90;;;;;;5031914;28;20095;-73
2022/01/02 00:21:53;;;;;;;20.17;11.43;;;9.30;99.90;;;;;;5032150;28;20044;-73
2022/01/02 00:25:27;;;;;;;22.02;11.80;;;9.30;99.90;;;;;;5031664;28;20048;-73
2022/01/02 00:28:51;;;;;;;22.38;12.48;;;9.30;99.90;;;;;;5031780;28;20044;-73
2022/01/02 00:32:15;;;;;;;21.63;11.35;;;9.20;99.90;;;;;;5031289;28;20052;-73
2022/01/02 00:35:38;;;;;;;21.15;12.20;;;9.20;99.90;;;;;;5031768;28;20474;-73
2022/01/02 00:39:02;;;;;;;22.33;12.80;;;9.10;99.90;;;;;;5031391;28;20047;-73
2022/01/02 00:42:34;;;;;;;21.02;11.93;;;9.00;99.90;;;;;;5030963;28;20037;-73
2022/01/02 00:46:00;;;;;;;20.38;12.30;;;9.00;99.90;;;;;;5031167;28;20044;-73
2022/01/02 00:49:25;;;;;;;19.08;11.75;;;9.10;99.90;;;;;;5031356;28;20052;-74
2022/01/02 00:52:50;;;;;;;21.90;11.80;;;9.10;99.90;;;;;;5031895;28;20376;-74
2022/01/02 00:56:17;;;;;;;24.38;13.43;;;9.20;99.90;;;;;;5031422;28;20511;-73
2022/01/02 00:59:53;;;;;;;21.10;11.80;;;9.20;99.90;;;;;;5030532;28;20052;-74
2022/01/02 01:03:29;;;;;;;22.15;12.43;;;9.10;99.90;;;;;;5030426;28;20331;-73
2022/01/02 01:06:55;;;;;;;22.50;12.93;;;8.90;99.90;;;;;;5030607;28;20053;-73
2022/01/02 01:10:21;;;;;;;24.40;12.60;;;8.90;99.90;;;;;;5031174;28;20052;-74
2022/01/02 01:13:45;;;;;;;19.23;10.73;;;8.90;99.90;;;;;;5030883;28;20044;-74
2022/01/02 01:17:09;;;;;;;24.45;11.10;;;9.00;99.90;;;;;;5030784;28;20393;-73
2022/01/02 01:20:37;;;;;;;19.30;10.68;;;9.10;99.90;;;;;;5030267;28;20048;-74
2022/01/02 01:24:01;;;;;;;19.20;10.60;;;9.20;99.90;;;;;;5030272;28;20053;-74
2022/01/02 01:27:26;;;;;;;18.80;11.70;;;9.30;99.90;;;;;;5030358;28;20050;-73
2022/01/02 01:30:48;;;;;;;19.77;11.65;;;9.30;99.90;;;;;;5029636;28;20056;-73
2022/01/02 01:34:11;;;;;;;20.45;12.05;;;9.40;99.90;;;;;;5029875;28;20396;-73
2022/01/02 01:37:34;;;;;;;23.00;12.75;;;9.40;99.90;;;;;;5029456;28;20044;-73
2022/01/02 01:41:12;;;;;;;20.13;12.73;;;9.40;99.90;;;;;;5030037;28;20060;-73
2022/01/02 01:48:21;;;;;;;20.10;12.02;;;9.50;99.90;;;;;;5025443;28;20056;-72
2022/01/02 01:51:45;;;;;;;19.88;11.55;;;9.50;99.90;;;;;;5030118;28;20494;-73
2022/01/02 01:55:09;;;;;;;16.00;10.05;;;9.40;99.90;;;;;;5030095;28;20469;-73
2022/01/02 01:58:32;;;;;;;15.88;9.00;;;9.40;99.90;;;;;;5029917;28;20041;-73
2022/01/02 02:01:55;;;;;;;16.60;8.15;;;9.40;99.90;;;;;;5029848;28;20048;-73
2022/01/02 02:05:18;;;;;;;15.25;8.95;;;9.40;99.90;;;;;;5029522;28;20512;-73
2022/01/02 02:08:46;;;;;;;15.40;9.32;;;9.30;99.90;;;;;;5029431;28;20048;-73
2022/01/02 02:12:10;;;;;;;13.95;7.88;;;9.40;99.90;;;;;;5029536;28;20053;-74
2022/01/02 02:15:36;;;;;;;15.38;8.32;;;9.40;99.90;;;;;;5029351;28;20508;-73
2022/01/02 02:18:59;;;;;;;14.52;8.60;;;9.40;99.90;;;;;;5029440;28;20048;-74
2022/01/02 02:22:24;;;;;;;18.33;9.98;;;9.30;99.90;;;;;;5030129;28;20040;-74
2022/01/02 02:25:46;;;;;;;18.45;9.68;;;9.30;99.90;;;;;;5029526;28;20121;-73
2022/01/02 02:29:09;;;;;;;19.88;11.45;;;9.40;99.90;;;;;;5029104;28;20044;-74
2022/01/02 02:32:32;;;;;;;;;;;9.20;99.90;;;;;;5030097;28;20393;-73
2022/01/02 02:35:54;;;;;;;;;;;9.10;99.90;;;;;;5030250;28;19920;-73
2022/01/02 02:39:17;;;;;;;;;;;9.00;99.90;;;;;;5029725;28;20390;-73
2022/01/02 02:49:59;;;;;;;20.17;10.68;;;9.10;99.90;;;;;;5030781;28;20499;-73
2022/01/02 02:53:21;;;;;;;21.90;12.10;;;9.20;99.90;;;;;;5033391;28;20044;-73
2022/01/02 02:56:56;;;;;;;18.63;11.20;;;8.90;99.90;;;;;;5033738;28;20057;-73
2022/01/02 03:00:19;;;;;;;17.55;10.82;;;8.70;99.90;;;;;;5032802;28;20049;-73
2022/01/02 03:03:42;;;;;;;20.65;10.82;;;8.80;99.90;;;;;;5033274;28;20044;-73
2022/01/02 03:07:05;;;;;;;19.02;10.82;;;8.90;99.90;;;;;;5032589;28;20396;-73
2022/01/02 03:10:28;;;;;;;22.45;12.00;;;8.90;99.90;;;;;;5033092;28;20068;-73
2022/01/02 03:13:54;;;;;;;13.60;8.98;;;9.00;99.90;;;;;;5043710;28;20041;-73
2022/01/02 03:17:18;;;;;;;17.85;10.73;;;9.10;99.90;;;;;;5032793;28;20044;-72
2022/01/02 03:20:41;;;;;;;19.60;10.80;;;9.00;99.90;;;;;;5032695;28;20400;-73
2022/01/02 03:24:04;;;;;;;20.83;12.18;;;9.00;99.90;;;;;;5033280;28;20037;-73
2022/01/02 03:27:27;;;;;;;18.88;10.93;;;8.90;99.90;;;;;;5032353;28;20044;-73
2022/01/02 03:30:50;;;;;;;18.08;10.30;;;9.00;99.90;;;;;;5032721;28;20061;-73
2022/01/02 03:34:13;;;;;;;14.70;8.95;;;9.00;99.90;;;;;;5032934;28;20053;-73
2022/01/02 03:37:36;;;;;;;17.00;9.38;;;9.00;99.90;;;;;;5032225;28;20060;-74
2022/01/02 03:40:59;;;;;;;17.88;10.23;;;9.10;99.90;;;;;;5033108;28;20052;-73
2022/01/02 03:44:22;;;;;;;16.88;9.98;;;9.10;99.90;;;;;;5032292;28;20052;-73
2022/01/02 03:47:46;;;;;;;16.58;9.27;;;9.00;99.90;;;;;;5032412;28;20040;-73
2022/01/02 03:51:09;;;;;;;22.85;10.88;;;8.90;99.90;;;;;;5032122;28;20064;-73
2022/01/02 03:54:32;;;;;;;16.73;10.30;;;8.70;99.90;;;;;;5031633;28;20045;-73
2022/01/02 03:57:54;;;;;;;19.08;10.77;;;8.80;99.90;;;;;;5031679;28;20072;-73
2022/01/02 04:01:17;;;;;;;20.25;10.93;;;8.70;99.90;;;;;;5031260;28;20052;-73
2022/01/02 04:04:40;;;;;;;17.52;10.20;;;8.50;99.90;;;;;;5032141;28;20056;-73
2022/01/02 04:08:05;;;;;;;18.25;10.85;;;8.60;99.90;;;;;;5031289;28;20048;-74
2022/01/02 04:11:28;;;;;;;21.45;11.38;;;8.80;99.90;;;;;;5031550;28;20048;-73
2022/01/02 04:14:52;;;;;;;24.27;12.23;;;8.90;99.90;;;;;;5031694;28;20040;-73
2022/01/02 04:18:14;;;;;;;19.17;10.93;;;8.70;99.90;;;;;;5030974;28;20408;-73
2022/01/02 04:21:37;;;;;;;19.00;11.38;;;8.80;99.90;;;;;;5031969;28;20044;-74
2022/01/02 04:25:00;;;;;;;18.23;10.88;;;8.80;99.90;;;;;;5031309;28;20138;-73
2022/01/02 04:28:26;;;;;;;20.33;11.90;;;8.90;99.90;;;;;;5031226;28;20376;-73
2022/01/02 04:31:48;;;;;;;20.75;11.18;;;8.80;99.90;;;;;;5031229;28;20380;-73
2022/01/02 04:35:11;;;;;;;16.58;10.27;;;8.60;99.90;;;;;;5031913;28;20040;-73
2022/01/02 04:38:37;;;;;;;17.33;10.52;;;8.60;99.90;;;;;;5030783;28;20041;-74
2022/01/02 04:42:00;;;;;;;20.83;11.52;;;8.60;99.90;;;;;;5031354;28;20439;-73
2022/01/02 04:45:24;;;;;;;19.67;10.95;;;8.70;99.90;;;;;;5031219;28;20053;-73
2022/01/02 04:48:49;;;;;;;20.63;11.82;;;8.70;99.90;;;;;;5030208;28;20053;-73
2022/01/02 04:52:12;;;;;;;21.88;11.77;;;8.80;99.90;;;;;;5030944;28;20048;-74
2022/01/02 04:55:35;;;;;;;22.60;12.32;;;8.80;99.90;;;;;;5030808;28;20393;-73
2022/01/02 04:58:58;;;;;;;20.42;11.35;;;8.90;99.90;;;;;;5030388;28;20064;-73
2022/01/02 05:02:21;;;;;;;22.73;12.27;;;8.90;99.90;;;;;;5030690;28;20037;-73
2022/01/02 05:05:44;;;;;;;21.42;11.55;;;8.90;99.90;;;;;;5031122;28;20388;-73
2022/01/02 05:09:07;;;;;;;19.10;11.10;;;8.90;99.90;;;;;;5030366;28;20053;-73
2022/01/02 05:12:31;;;;;;;17.70;9.52;;;8.90;99.90;;;;;;5029804;28;20056;-74
2022/01/02 05:15:54;;;;;;;14.45;9.85;;;9.00;99.90;;;;;;5030191;28;20049;-75
2022/01/02 05:19:19;;;;;;;21.83;12.38;;;9.00;99.90;;;;;;5030691;28;20036;-73
2022/01/02 05:22:42;;;;;;;23.98;13.48;;;9.00;99.90;;;;;;5030156;28;20056;-72
2022/01/02 05:26:05;;;;;;;20.23;11.10;;;8.90;99.90;;;;;;5030606;28;20052;-73
2022/01/02 05:29:29;;;;;;;17.75;10.43;;;8.90;99.90;;;;;;5030312;28;20068;-73
2022/01/02 05:32:53;;;;;;;17.63;10.85;;;8.80;99.90;;;;;;5030482;28;20053;-73
2022/01/02 05:36:15;;;;;;;20.45;11.05;;;8.80;99.90;;;;;;5030284;28;20056;-73
2022/01/02 05:39:38;;;;;;;19.40;11.25;;;8.80;99.90;;;;;;5030177;28;20048;-73
2022/01/02 05:43:04;;;;;;;23.98;13.40;;;8.80;99.90;;;;;;5030357;28;20396;-74
2022/01/02 05:46:27;;;;;;;25.67;12.30;;;8.70;99.90;;;;;;5030121;28;20037;-73
2022/01/02 05:49:50;;;;;;;22.60;11.82;;;8.70;99.90;;;;;;5029759;28;20048;-74
2022/01/02 05:53:14;;;;;;;18.50;11.15;;;8.80;99.90;;;;;;5030014;28;20096;-74
2022/01/02 05:56:37;;;;;;;21.70;11.50;;;8.80;99.90;;;;;;5029862;28;20040;-73
2022/01/02 06:00:03;;;;;;;21.60;12.38;;;8.70;99.90;;;;;;5029691;28;20041;-73
2022/01/02 06:03:25;;;;;;;22.17;11.85;;;8.60;99.90;;;;;;5033094;28;20044;-73
2022/01/02 06:06:48;;;;;;;19.27;11.73;;;8.60;99.90;;;;;;5030897;28;20041;-73
2022/01/02 06:10:11;;;;;;;24.48;12.63;;;8.60;99.90;;;;;;5029406;28;20401;-74
2022/01/02 06:13:35;;;;;;;20.55;12.13;;;8.60;99.90;;;;;;5029795;28;20049;-74
2022/01/02 06:16:58;;;;;;;23.58;13.10;;;8.50;99.90;;;;;;5030182;28;20041;-73
2022/01/02 06:20:22;;;;;;;19.73;12.18;;;8.60;99.90;;;;;;5029230;28;20048;-73
2022/01/02 06:23:44;;;;;;;23.45;13.07;;;8.60;99.90;;;;;;5031875;28;20044;-74
2022/01/02 06:27:07;;;;;;;29.17;14.13;;;8.60;99.90;;;;;;5033659;28;20503;-72
2022/01/02 06:30:32;;;;;;;23.02;13.60;;;8.60;99.90;;;;;;5033381;28;20060;-73
2022/01/02 06:33:57;;;;;;;24.80;13.65;;;8.60;99.90;;;;;;5033906;28;20037;-73
2022/01/02 06:37:20;;;;;;;26.55;14.63;;;8.60;99.90;;;;;;5034461;28;20066;-74
2022/01/02 06:40:43;;;;;;;26.33;14.70;;;8.50;99.90;;;;;;5033269;28;20045;-73
2022/01/02 06:44:06;;;;;;;34.20;18.15;;;8.50;99.90;;;;;;5033466;28;20504;-74
2022/01/02 06:47:29;;;;;;;33.83;17.77;;;8.40;99.90;;;;;;5033342;28;20041;-73
2022/01/02 06:50:52;;;;;;;32.08;17.75;;;8.40;99.90;;;;;;5033414;28;20048;-73
2022/01/02 06:54:15;;;;;;;35.45;18.63;;;8.40;99.90;;;;;;5034565;28;20044;-73
2022/01/02 06:57:38;;;;;;;28.00;16.70;;;8.40;99.90;;;;;;5033799;28;20064;-73
2022/01/02 07:01:00;;;;;;;27.83;16.05;;;8.40;99.90;;;;;;5033348;28;20051;-74
2022/01/02 07:04:24;;;;;;;31.13;18.05;;;8.40;99.90;;;;;;5033220;28;20044;-73
2022/01/02 07:07:48;;;;;;;37.70;18.00;;;8.50;99.90;;;;;;5033231;28;20064;-73
2022/01/02 07:11:12;;;;;;;34.72;18.05;;;8.50;99.90;;;;;;5032876;28;20048;-73
2022/01/02 07:14:35;;;;;;;33.90;17.98;;;8.50;99.90;;;;;;5033405;28;20053;-73
2022/01/02 07:17:58;;;;;;;28.15;17.40;;;8.50;99.90;;;;;;5033532;28;20056;-73
2022/01/02 07:21:23;;;;;;;29.02;16.92;;;8.60;99.90;;;;;;5032931;28;20040;-74
2022/01/02 07:24:50;;;;;;;33.53;17.35;;;8.60;99.90;;;;;;5033062;28;20037;-73
2022/01/02 07:28:13;;;;;;;32.25;17.38;;;8.60;99.90;;;;;;5033068;28;20044;-73
2022/01/02 07:31:38;;;;;;;30.42;16.65;;;8.60;99.90;;;;;;5032876;28;20060;-73
2022/01/02 07:35:00;;;;;;;31.85;15.82;;;8.70;99.90;;;;;;5032479;28;20060;-74
2022/01/02 07:38:23;;;;;;;29.80;17.17;;;8.70;99.90;;;;;;5032746;28;20044;-74
2022/01/02 07:41:46;;;;;;;30.40;17.35;;;8.80;99.90;;;;;;5032971;28;20057;-73
2022/01/02 07:45:12;;;;;;;30.25;16.80;;;8.80;99.90;;;;;;5032080;28;20045;-73
2022/01/02 07:48:35;;;;;;;30.83;16.65;;;8.80;99.90;;;;;;5032655;28;20507;-73
2022/01/02 07:51:58;;;;;;;34.83;18.95;;;8.90;99.90;;;;;;5032562;28;20044;-71
2022/01/02 07:55:21;;;;;;;32.22;18.73;;;8.80;99.90;;;;;;5032631;28;20056;-71
2022/01/02 07:58:44;;;;;;;31.60;18.77;;;8.80;99.90;;;;;;5032013;28;20036;-71
2022/01/02 08:02:07;;;;;;;35.05;19.20;;;8.90;99.90;;;;;;5032002;28;20503;-71
2022/01/02 08:05:31;;;;;;;31.17;19.00;;;9.00;99.90;;;;;;5032067;28;20523;-74
2022/01/02 08:08:55;;;;;;;30.35;18.00;;;9.00;99.90;;;;;;5031988;28;20045;-73
2022/01/02 08:12:18;;;;;;;33.38;19.27;;;9.10;99.90;;;;;;5032183;28;20044;-73
2022/01/02 08:15:41;;;;;;;31.88;18.15;;;9.20;99.90;;;;;;5032358;28;20044;-73
2022/01/02 08:19:08;;;;;;;33.53;18.00;;;9.20;99.90;;;;;;5032284;28;20444;-74
2022/01/02 08:22:31;;;;;;;30.17;18.10;;;9.20;99.90;;;;;;5031828;28;20048;-73
2022/01/02 08:25:54;;;;;;;28.33;17.50;;;9.30;99.90;;;;;;5032129;28;20048;-71
2022/01/02 08:29:17;;;;;;;31.98;16.63;;;9.40;99.90;;;;;;5031740;28;20148;-73
2022/01/02 08:32:40;;;;;;;27.58;16.60;;;9.40;99.90;;;;;;5030883;28;20037;-74
2022/01/02 08:36:05;;;;;;;30.75;15.43;;;9.40;99.90;;;;;;5031679;28;20116;-73
2022/01/02 08:39:27;;;;;;;24.67;15.68;;;9.60;99.90;;;;;;5031385;28;20053;-73
2022/01/02 08:42:50;;;;;;;26.77;15.55;;;9.60;99.90;;;;;;5031598;28;20037;-74
2022/01/02 08:46:13;;;;;;;26.90;16.00;;;9.70;99.90;;;;;;5031575;28;20046;-74
2022/01/02 08:49:36;;;;;;;32.85;17.23;;;9.80;99.90;;;;;;5030509;28;20040;-74
2022/01/02 08:52:59;;;;;;;30.55;17.70;;;9.80;99.90;;;;;;5031171;28;20044;-73
2022/01/02 08:56:21;;;;;;;29.83;16.25;;;9.70;99.90;;;;;;5031234;28;20401;-74
2022/01/02 08:59:45;;;;;;;25.35;16.08;;;9.80;99.90;;;;;;5030491;28;20047;-73
2022/01/02 09:03:09;;;;;;;31.83;16.45;;;9.80;99.90;;;;;;5021967;28;20037;-74
2022/01/02 09:06:32;;;;;;;32.15;17.95;;;10.00;99.90;;;;;;5030330;28;20044;-73
2022/01/02 09:09:55;;;;;;;40.17;20.98;;;10.10;99.90;;;;;;5031114;28;20056;-73
2022/01/02 09:13:20;;;;;;;35.65;20.02;;;10.10;99.90;;;;;;5030952;28;20064;-74
2022/01/02 09:16:45;;;;;;;37.33;22.45;;;10.20;99.90;;;;;;5030740;28;20052;-73
2022/01/02 09:20:09;;;;;;;43.20;26.83;;;10.40;99.90;;;;;;5030773;28;20388;-73
2022/01/02 09:23:32;;;;;;;36.08;20.85;;;10.50;99.90;;;;;;5030618;28;20392;-73
2022/01/02 09:26:56;;;;;;;30.63;17.77;;;10.50;99.90;;;;;;5030395;28;20060;-73
2022/01/02 09:30:19;;;;;;;30.10;16.58;;;10.00;99.90;;;;;;5030656;28;20068;-73
2022/01/02 09:33:42;;;;;;;26.35;14.45;;;10.00;99.90;;;;;;5030861;28;20045;-73
2022/01/02 09:37:05;;;;;;;29.38;15.88;;;10.10;99.90;;;;;;5030742;28;20048;-73
2022/01/02 09:40:29;;;;;;;25.77;15.68;;;10.10;99.90;;;;;;5030472;28;20056;-73
2022/01/02 09:43:52;;;;;;;24.90;14.32;;;10.00;99.90;;;;;;5030813;28;20036;-73
2022/01/02 09:47:18;;;;;;;24.50;15.13;;;10.10;99.90;;;;;;5029932;28;20064;-73
2022/01/02 09:50:42;;;;;;;26.42;14.80;;;10.20;99.90;;;;;;5030358;28;20400;-73
2022/01/02 09:54:05;;;;;;;31.92;19.05;;;10.20;99.90;;;;;;5030152;28;20375;-74
2022/01/02 09:57:09;;;;;;;28.00;15.63;;;10.30;99.90;;;;;;5030631;28;20084;-73
2022/01/02 10:00:14;;;;;;;25.58;15.63;;;10.30;99.90;;;;;;5030149;28;20048;-73
2022/01/02 10:03:19;;;;;;;36.13;19.00;;;10.30;99.90;;;;;;5030683;28;20064;-71
2022/01/02 10:06:48;;;;;;;28.70;16.60;;;10.30;99.90;;;;;;5030883;28;20049;-73
2022/01/02 10:09:52;;;;;;;28.35;16.55;;;10.30;99.90;;;;;;5029730;28;20499;-74
2022/01/02 10:13:01;;;;;;;24.27;14.77;;;10.20;99.90;;;;;;5030323;28;20049;-74
2022/01/02 10:16:34;;;;;;;24.15;14.27;;;10.40;99.90;;;;;;5030388;28;20484;-74
2022/01/02 10:19:40;;;;;;;26.83;16.17;;;10.40;99.90;;;;;;5030081;28;20048;-73
2022/01/02 10:23:20;;;;;;;27.50;15.20;;;10.50;99.90;;;;;;5030293;28;20044;-74
2022/01/02 10:26:24;;;;;;;19.33;12.25;;;10.60;99.90;;;;;;5030119;28;20037;-74
2022/01/02 10:29:50;;;;;;;19.33;12.80;;;10.80;99.90;;;;;;5029950;28;20041;-73
2022/01/02 10:32:55;;;;;;;20.13;12.18;;;11.00;99.90;;;;;;5030158;28;20503;-73
2022/01/02 10:36:02;;;;;;;17.05;9.02;;;11.10;99.90;;;;;;5030115;28;20053;-74
2022/01/02 10:39:10;;;;;;;18.52;11.63;;;11.30;99.90;;;;;;5029285;28;20496;-73
2022/01/02 10:42:17;;;;;;;22.98;12.05;;;11.60;99.90;;;;;;5030170;28;20057;-74
2022/01/02 10:45:35;;;;;;;19.90;11.60;;;11.60;99.90;;;;;;5030043;28;20341;-73
2022/01/02 10:48:41;;;;;;;19.73;10.90;;;11.60;99.90;;;;;;5029051;28;20036;-74
2022/01/02 10:51:45;;;;;;;22.60;11.07;;;11.70;99.90;;;;;;5029921;28;20056;-74
2022/01/02 10:54:49;;;;;;;19.60;10.95;;;11.60;99.90;;;;;;5029401;28;20048;-74
2022/01/02 10:57:55;;;;;;;22.25;10.27;;;11.70;99.90;;;;;;5029897;28;20057;-74
2022/01/02 11:01:05;;;;;;;24.10;15.38;;;11.80;99.90;;;;;;5029157;28;20053;-73
2022/01/02 11:04:09;;;;;;;20.40;12.63;;;12.00;99.90;;;;;;5030048;28;20057;-74
2022/01/02 11:07:22;;;;;;;28.40;18.60;;;12.20;99.90;;;;;;5030306;28;20045;-74
2022/01/02 11:10:28;;;;;;;21.10;12.55;;;12.30;99.90;;;;;;5029986;28;20052;-74
2022/01/02 11:13:33;;;;;;;19.80;10.27;;;12.30;99.90;;;;;;5045462;28;20051;-74
2022/01/02 11:16:38;;;;;;;18.67;9.90;;;12.20;99.90;;;;;;5033581;28;20128;-73
2022/01/02 11:19:43;;;;;;;18.20;11.57;;;12.10;99.90;;;;;;5033366;28;20048;-74
2022/01/02 11:23:12;;;;;;;22.10;11.25;;;11.90;99.90;;;;;;5033267;28;20052;-74
2022/01/02 11:26:40;;;;;;;20.40;11.30;;;11.80;99.90;;;;;;5033140;28;20511;-73
2022/01/02 11:29:44;;;;;;;29.00;18.58;;;11.70;99.90;;;;;;5032169;28;20037;-74
2022/01/02 11:33:06;;;;;;;22.52;12.43;;;11.80;99.90;;;;;;5033505;28;20504;-74
2022/01/02 11:36:30;;;;;;;20.45;12.90;;;11.90;99.90;;;;;;5032655;28;20056;-73
2022/01/02 11:39:56;;;;;;;18.95;13.07;;;12.00;99.90;;;;;;5032968;28;20439;-74
2022/01/02 11:43:00;;;;;;;20.27;12.05;;;12.10;99.90;;;;;;5033161;28;20393;-74
2022/01/02 11:46:24;;;;;;;14.38;9.38;;;12.10;99.90;;;;;;5033039;28;20060;-74
2022/01/02 11:49:43;;;;;;;15.68;8.10;;;12.20;99.90;;;;;;5032056;28;20037;-74
2022/01/02 11:53:09;;;;;;;13.90;8.93;;;12.20;99.90;;;;;;5031832;28;20052;-74
2022/01/02 11:56:31;;;;;;;11.32;7.45;;;12.30;99.90;;;;;;5032914;28;20044;-72
2022/01/02 11:59:39;;;;;;;8.95;5.63;;;12.30;99.90;;;;;;5031978;28;20032;-74
2022/01/02 12:02:43;;;;;;;7.05;4.78;;;12.30;99.90;;;;;;5032550;28;20057;-74
2022/01/02 12:06:33;;;;;;;13.95;9.18;;;12.30;99.90;;;;;;5031957;28;20033;-74
2022/01/02 12:09:38;;;;;;;9.95;6.22;;;12.30;99.90;;;;;;5032044;28;20492;-73
2022/01/02 12:13:18;;;;;;;8.77;5.20;;;12.40;99.90;;;;;;5032157;28;20040;-74
2022/01/02 12:16:36;;;;;;;8.30;4.95;;;12.50;99.90;;;;;;5032171;28;20045;-72
2022/01/02 12:19:59;;;;;;;11.93;8.10;;;12.60;99.90;;;;;;5031453;28;20033;-71
2022/01/02 12:23:02;;;;;;;12.70;9.73;;;12.70;99.90;;;;;;5031615;28;20048;-74
2022/01/02 12:26:21;;;;;;;4.88;3.38;;;12.80;99.90;;;;;;5031890;28;20045;-71
2022/01/02 12:29:25;;;;;;;18.92;14.25;;;12.80;99.90;;;;;;5031336;28;20057;-74
2022/01/02 12:32:31;;;;;;;6.43;5.05;;;12.70;99.90;;;;;;5031831;28;20523;-73
2022/01/02 12:35:39;;;;;;;13.50;10.32;;;12.60;99.90;;;;;;5031370;28;20048;-73
2022/01/02 12:38:58;;;;;;;14.85;11.02;;;12.60;99.90;;;;;;5030596;28;20052;-73
2022/01/02 12:42:14;;;;;;;19.92;11.77;;;12.50;99.90;;;;;;5031281;28;20326;-73
2022/01/02 12:45:30;;;;;;;9.35;4.38;;;12.40;99.90;;;;;;5030342;28;20229;-74
2022/01/02 12:48:41;;;;;;;11.25;7.53;;;12.40;99.90;;;;;;5031320;28;20380;-73
2022/01/02 12:52:01;;;;;;;9.63;7.05;;;12.40;99.90;;;;;;5031499;28;20040;-73
2022/01/02 12:55:13;;;;;;;9.93;6.13;;;12.30;99.90;;;;;;5031219;28;20124;-73
2022/01/02 12:58:37;;;;;;;9.32;5.88;;;12.20;99.90;;;;;;5026012;28;20044;-73
2022/01/02 13:01:59;;;;;;;8.35;5.22;;;12.10;99.90;;;;;;5030946;28;20045;-73
2022/01/02 13:05:06;;;;;;;8.93;6.07;;;12.20;99.90;;;;;;5030969;28;20037;-73
2022/01/02 13:08:21;;;;;;;11.05;5.32;;;12.20;99.90;;;;;;5030935;28;20037;-73
2022/01/02 13:11:43;;;;;;;7.97;5.22;;;12.30;99.90;;;;;;5030919;28;20056;-73
2022/01/02 13:14:56;;;;;;;10.27;5.60;;;12.40;99.90;;;;;;5030849;28;20056;-73
2022/01/02 13:18:00;;;;;;;10.65;6.80;;;12.40;99.90;;;;;;5030783;28;20040;-71
2022/01/02 13:21:06;;;;;;;22.60;15.38;;;12.50;99.90;;;;;;5030804;28;20057;-73
2022/01/02 13:24:23;;;;;;;31.88;21.88;;;12.50;99.90;;;;;;5030695;28;20048;-73
2022/01/02 13:27:27;;;;;;;41.08;28.15;;;12.50;99.90;;;;;;5031265;28;20045;-74
2022/01/02 13:30:52;;;;;;;48.72;32.78;;;12.50;99.90;;;;;;5030170;28;20391;-73
2022/01/02 13:33:56;;;;;;;52.67;34.50;;;12.60;99.90;;;;;;5030206;28;20400;-73
2022/01/02 13:37:02;;;;;;;21.23;13.77;;;12.60;99.90;;;;;;5030688;28;20047;-73
2022/01/02 13:40:10;;;;;;;13.25;9.02;;;12.60;99.90;;;;;;5030727;28;20048;-73
2022/01/02 13:43:16;;;;;;;15.32;10.32;;;12.60;99.90;;;;;;5030573;28;20407;-73
2022/01/02 13:46:21;;;;;;;14.07;10.00;;;12.50;99.90;;;;;;5030764;28;20039;-73
2022/01/02 13:49:45;;;;;;;14.82;9.00;;;12.50;99.90;;;;;;5030003;28;20503;-73
2022/01/02 13:52:54;;;;;;;16.88;10.85;;;12.40;99.90;;;;;;5030412;28;20388;-74
2022/01/02 13:56:06;;;;;;;34.17;26.73;;;12.30;99.90;;;;;;5029512;28;20224;-73
2022/01/02 13:59:11;;;;;;;15.00;11.18;;;12.30;99.90;;;;;;5029937;28;20076;-73
2022/01/02 14:02:15;;;;;;;19.50;13.40;;;12.30;99.90;;;;;;5030057;28;20048;-73
2022/01/02 14:05:24;;;;;;;10.43;7.10;;;12.20;99.90;;;;;;5030313;28;20127;-73
2022/01/02 14:08:29;;;;;;;8.32;5.47;;;12.20;99.90;;;;;;5029945;28;20060;-74
2022/01/02 14:11:35;;;;;;;7.82;4.70;;;12.20;99.90;;;;;;5030077;28;20396;-73
2022/01/02 14:14:50;;;;;;;5.03;3.00;;;12.30;99.90;;;;;;5030119;28;20052;-73
2022/01/02 14:17:54;;;;;;;9.25;5.88;;;12.30;99.90;;;;;;5029498;28;20040;-73
2022/01/02 14:21:01;;;;;;;11.90;5.93;;;12.40;99.90;;;;;;5029626;28;20040;-74
2022/01/02 14:24:06;;;;;;;7.72;4.63;;;12.40;99.90;;;;;;5029678;28;20044;-74
2022/01/02 14:27:16;;;;;;;9.15;4.43;;;12.30;99.90;;;;;;5029724;28;20463;-74
2022/01/02 14:30:22;;;;;;;8.30;4.57;;;12.30;99.90;;;;;;5029340;28;20041;-73
2022/01/02 14:33:26;;;;;;;11.00;6.88;;;12.20;99.90;;;;;;5029869;28;20044;-73
2022/01/02 14:36:30;;;;;;;14.50;8.10;;;12.10;99.90;;;;;;5028855;28;20052;-74
2022/01/02 14:39:35;;;;;;;14.43;8.65;;;12.00;99.90;;;;;;5029627;28;20052;-74
2022/01/02 14:42:40;;;;;;;9.65;5.85;;;11.90;99.90;;;;;;5029549;28;20056;-72
2022/01/02 14:45:44;;;;;;;12.80;7.50;;;11.90;99.90;;;;;;5032686;28;20052;-73
2022/01/02 14:48:48;;;;;;;14.93;9.88;;;11.80;99.90;;;;;;5032963;28;20037;-73
2022/01/02 14:51:52;;;;;;;15.13;10.65;;;11.70;99.90;;;;;;5033194;28;20061;-73
2022/01/02 14:54:56;;;;;;;24.77;15.07;;;11.70;99.90;;;;;;5032560;28;20052;-74
2022/01/02 14:58:00;;;;;;;28.70;17.55;;;11.60;99.90;;;;;;5032926;28;20057;-73
2022/01/02 15:01:06;;;;;;;30.83;17.48;;;11.60;99.90;;;;;;5033234;28;20041;-73
2022/01/02 15:04:11;;;;;;;15.65;10.57;;;11.60;99.90;;;;;;5033055;28;20052;-73
2022/01/02 15:07:14;;;;;;;19.63;13.43;;;11.50;99.90;;;;;;5032758;28;20048;-74
2022/01/02 15:10:18;;;;;;;10.20;6.35;;;11.50;99.90;;;;;;5032137;28;20068;-73
2022/01/02 15:13:22;;;;;;;25.40;17.35;;;11.40;99.90;;;;;;5032870;28;20060;-73
2022/01/02 15:16:27;;;;;;;33.60;22.75;;;11.40;99.90;;;;;;5033477;28;20045;-73
2022/01/02 15:19:31;;;;;;;9.43;6.28;;;11.30;99.90;;;;;;5032542;28;20048;-73
2022/01/02 15:22:36;;;;;;;13.43;9.02;;;11.30;99.90;;;;;;5032501;28;20060;-73
2022/01/02 15:25:40;;;;;;;11.82;6.65;;;11.30;99.90;;;;;;5032545;28;20052;-73
2022/01/02 15:28:47;;;;;;;9.60;6.20;;;11.20;99.90;;;;;;5032062;28;20036;-73
2022/01/02 15:31:56;;;;;;;22.13;13.70;;;11.20;99.90;;;;;;5033005;28;20052;-73
2022/01/02 15:35:07;;;;;;;28.52;14.35;;;11.20;99.90;;;;;;5032533;28;20049;-73
2022/01/02 15:38:11;;;;;;;11.65;7.57;;;11.20;99.90;;;;;;5031829;28;20391;-73
2022/01/02 15:41:14;;;;;;;14.15;6.55;;;11.10;99.90;;;;;;5032680;28;20053;-73
2022/01/02 15:44:20;;;;;;;10.23;6.88;;;11.10;99.90;;;;;;5032543;28;20399;-73
2022/01/02 15:47:24;;;;;;;9.85;6.57;;;11.10;99.90;;;;;;5031265;28;20049;-71
2022/01/02 15:50:28;;;;;;;11.38;7.32;;;11.00;99.90;;;;;;5032079;28;20052;-71
2022/01/02 15:53:34;;;;;;;9.68;5.07;;;11.00;99.90;;;;;;5032325;28;20052;-73
2022/01/02 15:56:39;;;;;;;11.95;5.80;;;10.90;99.90;;;;;;5031487;28;20040;-73
2022/01/02 15:59:43;;;;;;;14.70;6.22;;;10.90;99.90;;;;;;5031760;28;20045;-73
2022/01/02 16:02:47;;;;;;;11.23;6.82;;;10.80;99.90;;;;;;5031007;28;20056;-73
2022/01/02 16:05:56;;;;;;;13.60;7.63;;;10.80;99.90;;;;;;5031920;28;20045;-71
2022/01/02 16:09:01;;;;;;;12.77;8.63;;;10.70;99.90;;;;;;5031274;28;20040;-72
2022/01/02 16:12:07;;;;;;;26.77;16.75;;;10.70;99.90;;;;;;5031280;28;20060;-71
2022/01/02 16:15:11;;;;;;;28.38;20.02;;;10.60;99.90;;;;;;5031899;28;20044;-71
2022/01/02 16:18:16;;;;;;;24.73;17.65;;;10.60;99.90;;;;;;5031029;28;20064;-71
2022/01/02 16:21:20;;;;;;;47.05;33.10;;;10.60;99.90;;;;;;5031740;28;20503;-71
2022/01/02 16:24:25;;;;;;;49.50;31.83;;;10.50;99.90;;;;;;5031756;28;20048;-73
2022/01/02 16:27:29;;;;;;;31.27;17.70;;;10.60;99.90;;;;;;5030645;28;20041;-71
2022/01/02 16:30:35;;;;;;;35.15;23.85;;;10.50;99.90;;;;;;5030636;28;20033;-73
2022/01/02 16:33:39;;;;;;;24.20;15.27;;;10.50;99.90;;;;;;5030645;28;20048;-73
2022/01/02 16:36:43;;;;;;;28.33;17.35;;;10.50;99.90;;;;;;5030854;28;20045;-73
2022/01/02 16:39:47;;;;;;;31.92;20.30;;;10.50;99.90;;;;;;5030752;28;20049;-73
2022/01/02 16:42:53;;;;;;;36.20;23.55;;;10.50;99.90;;;;;;5031283;28;20047;-73
2022/01/02 16:45:57;;;;;;;28.35;17.10;;;10.50;99.90;;;;;;5030560;28;20045;-73
2022/01/02 16:49:01;;;;;;;35.15;23.38;;;10.50;99.90;;;;;;5030038;28;20041;-73
2022/01/02 16:52:09;;;;;;;21.17;14.80;;;10.50;99.90;;;;;;5030818;28;20044;-71
2022/01/02 16:55:13;;;;;;;23.02;13.90;;;10.50;99.90;;;;;;5031309;28;20052;-73
2022/01/02 16:58:18;;;;;;;19.92;13.77;;;10.50;99.90;;;;;;5030636;28;20052;-73
2022/01/02 17:01:23;;;;;;;20.15;12.65;;;10.50;99.90;;;;;;5031282;28;20044;-74
2022/01/02 17:04:27;;;;;;;21.58;14.23;;;10.50;99.90;;;;;;5031173;28;20044;-74